Time;durP1;ratioP1;P1;durP2;ratioP2;P2;SDS_P1;SDS_P2;PMS_P1;PMS_P2;Temp;Humidity;BMP_temperature;BMP_pressure;BME280_temperature;BME280_humidity;BME280_pressure;Samples;Min_cycle;Max_cycle;Signal;HPM_P1;HPM_P2
2021/03/09 00:00:09;;;;;;;10.63;7.47;;;;;;;3.70;64.94;98256.72;5049657;28;20547;-74
2021/03/09 00:02:34;;;;;;;15.38;7.43;;;;;;;3.74;64.69;98257.88;5049912;28;20067;-74
2021/03/09 00:05:00;;;;;;;10.32;7.47;;;;;;;3.80;64.75;98261.47;5049832;28;20025;-74
2021/03/09 00:07:25;;;;;;;14.15;7.45;;;;;;;3.81;64.66;98257.72;5048025;28;20052;-74
2021/03/09 00:09:51;;;;;;;12.75;6.43;;;;;;;3.79;64.72;98265.22;5031626;28;20047;-74
2021/03/09 00:12:16;;;;;;;13.07;7.70;;;;;;;3.87;64.52;98259.44;5033523;28;20022;-74
2021/03/09 00:14:42;;;;;;;;;;;;;;;3.86;63.93;98259.66;5044366;28;20033;-74
2021/03/09 00:17:07;;;;;;;11.75;7.32;;;;;;;3.84;64.28;98259.09;5040618;28;19909;-74
2021/03/09 00:19:32;;;;;;;12.40;7.10;;;;;;;3.82;63.97;98262.06;5037776;28;20052;-75
2021/03/09 00:21:58;;;;;;;;;;;;;;;3.82;64.28;98264.78;5033667;28;20030;-74
2021/03/09 00:24:23;;;;;;;11.57;7.18;;;;;;;3.79;64.40;98260.66;5033213;28;19913;-74
2021/03/09 00:26:48;;;;;;;10.00;6.43;;;;;;;3.75;64.56;98264.94;5033449;28;20021;-75
2021/03/09 00:29:14;;;;;;;;;;;;;;;3.73;64.54;98264.34;5033698;28;20145;-74
2021/03/09 00:31:39;;;;;;;12.20;7.18;;;;;;;3.70;64.71;98262.13;5051573;28;20313;-75
2021/03/09 00:34:04;;;;;;;;;;;;;;;3.71;64.67;98257.53;5053635;28;20040;-74
2021/03/09 00:36:30;;;;;;;9.40;6.30;;;;;;;3.65;65.16;98263.91;5053025;28;19955;-75
2021/03/09 00:38:55;;;;;;;;;;;;;;;3.66;65.17;98260.97;5053019;28;20052;-75
2021/03/09 00:41:21;;;;;;;11.27;7.93;;;;;;;3.51;65.13;98257.19;5052972;28;19913;-74
2021/03/09 00:43:46;;;;;;;10.18;6.30;;;;;;;3.61;65.37;98257.34;5052806;28;20094;-75
2021/03/09 00:46:11;;;;;;;;;;;;;;;3.48;65.45;98252.22;5046204;28;20112;-75
2021/03/09 00:48:40;;;;;;;15.63;8.90;;;;;;;3.40;65.40;98256.16;5034551;28;19917;-75
2021/03/09 00:51:07;;;;;;;12.70;7.35;;;;;;;3.38;65.60;98252.91;5040335;28;20042;-74
2021/03/09 00:53:32;;;;;;;9.52;5.63;;;;;;;3.24;66.24;98244.25;5043312;28;20043;-75
2021/03/09 00:55:58;;;;;;;11.02;7.15;;;;;;;3.24;66.39;98241.53;5052651;28;20589;-74
2021/03/09 00:58:23;;;;;;;;;;;;;;;3.34;66.07;98243.63;5036744;28;20037;-74
2021/03/09 01:00:49;;;;;;;10.00;6.45;;;;;;;3.21;66.54;98252.84;5032494;28;19921;-74
2021/03/09 01:03:14;;;;;;;;;;;;;;;3.15;67.00;98243.00;5033015;28;20092;-74
2021/03/09 01:05:40;;;;;;;13.40;7.18;;;;;;;3.12;66.80;98235.38;5036173;28;19919;-74
2021/03/09 01:08:05;;;;;;;;;;;;;;;3.10;66.75;98239.38;5052634;28;20036;-74
2021/03/09 01:10:31;;;;;;;11.25;7.85;;;;;;;3.07;66.72;98234.44;5052167;28;19913;-74
2021/03/09 01:12:56;;;;;;;;;;;;;;;3.10;66.51;98236.69;5052636;28;20417;-74
2021/03/09 01:15:22;;;;;;;11.65;6.57;;;;;;;2.98;66.59;98233.16;5052199;28;19912;-74
2021/03/09 01:17:47;;;;;;;;;;;;;;;3.00;67.08;98234.59;5052690;28;20082;-74
2021/03/09 01:20:13;;;;;;;9.93;7.03;;;;;;;2.96;66.88;98233.41;5052136;28;19912;-74
2021/03/09 01:22:39;;;;;;;11.85;7.25;;;;;;;3.00;66.62;98229.19;5042297;28;20053;-74
2021/03/09 01:25:06;;;;;;;11.05;7.60;;;;;;;2.97;67.22;98235.06;5032123;28;20068;-74
2021/03/09 01:27:32;;;;;;;12.80;6.13;;;;;;;2.98;66.98;98236.69;5032087;28;20025;-74
2021/03/09 01:29:57;;;;;;;12.73;7.43;;;;;;;2.94;67.02;98223.91;5032070;28;20072;-74
2021/03/09 01:32:22;;;;;;;;;;;;;;;2.96;66.96;98227.19;5032838;28;20017;-74
2021/03/09 01:34:48;;;;;;;9.60;6.47;;;;;;;2.91;67.14;98227.94;5032033;28;19917;-74
2021/03/09 01:37:14;;;;;;;13.80;6.25;;;;;;;2.89;67.16;98227.31;5031848;28;20539;-74
2021/03/09 01:39:39;;;;;;;16.63;7.78;;;;;;;2.87;67.53;98229.47;5031528;28;20469;-74
2021/03/09 01:42:05;;;;;;;12.75;6.85;;;;;;;2.74;67.53;98218.91;5030378;28;20033;-75
2021/03/09 01:44:30;;;;;;;12.57;6.03;;;;;;;2.85;67.54;98223.44;5031825;28;20041;-74
2021/03/09 01:47:01;;;;;;;10.70;7.50;;;;;;;2.84;67.54;98229.94;5032234;28;20037;-75
2021/03/09 01:49:30;;;;;;;7.78;6.20;;;;;;;2.95;67.62;98231.78;5042154;28;20392;-76
2021/03/09 01:51:56;;;;;;;11.55;6.97;;;;;;;2.89;67.99;98218.41;5035458;28;20025;-75
2021/03/09 01:54:22;;;;;;;12.50;7.13;;;;;;;2.78;68.30;98220.09;5031882;28;20029;-75
2021/03/09 01:56:47;;;;;;;14.27;8.57;;;;;;;2.73;68.67;98211.88;5052879;28;20028;-75
2021/03/09 01:59:15;;;;;;;;;;;;;;;2.70;68.79;98223.16;5054743;28;20465;-75
2021/03/09 02:01:40;;;;;;;;;;;;;;;2.81;68.86;98222.31;5053209;28;19913;-75
2021/03/09 02:04:06;;;;;;;11.17;6.33;;;;;;;2.61;69.39;98216.47;5051632;28;20380;-75
2021/03/09 02:06:34;;;;;;;14.70;7.22;;;;;;;2.60;69.47;98212.94;5046073;28;20099;-75
2021/03/09 02:09:00;;;;;;;10.30;7.38;;;;;;;2.54;69.52;98207.69;5048570;28;20056;-75
2021/03/09 02:11:43;;;;;;;17.38;7.97;;;;;;;2.62;69.59;98202.75;5050234;28;20044;-74
2021/03/09 02:14:24;;;;;;;9.98;7.07;;;;;;;2.60;69.74;98201.34;5045429;28;20501;-74
2021/03/09 02:17:06;;;;;;;14.23;7.15;;;;;;;2.47;70.20;98188.13;5032139;28;20037;-74
2021/03/09 02:19:37;;;;;;;14.10;7.70;;;;;;;2.33;70.71;98209.13;5040299;28;20035;-74
2021/03/09 02:22:09;;;;;;;16.02;9.40;;;;;;;2.26;71.00;98213.00;5051579;28;20029;-74
2021/03/09 02:24:49;;;;;;;12.30;6.68;;;;;;;2.24;71.05;98213.25;5049284;28;20029;-74
2021/03/09 02:27:33;;;;;;;14.13;9.05;;;;;;;2.13;71.49;98198.69;5049988;28;20029;-75
2021/03/09 02:30:18;;;;;;;17.10;7.78;;;;;;;2.06;71.76;98195.31;5050322;28;20055;-75
2021/03/09 02:32:50;;;;;;;15.38;7.57;;;;;;;2.03;72.03;98205.75;5050159;28;20029;-75
2021/03/09 02:35:19;;;;;;;15.05;7.60;;;;;;;1.94;72.15;98186.38;5050712;28;20043;-74
2021/03/09 02:37:48;;;;;;;10.60;7.38;;;;;;;2.09;72.28;98208.34;5050400;28;20079;-74
2021/03/09 02:40:15;;;;;;;12.00;7.78;;;;;;;2.16;71.79;98198.22;5050706;28;20036;-75
2021/03/09 02:42:54;;;;;;;10.98;7.82;;;;;;;2.10;72.12;98190.25;5050769;28;20733;-75
2021/03/09 02:45:21;;;;;;;14.13;8.32;;;;;;;2.15;71.87;98198.47;5049514;28;20170;-75
2021/03/09 02:47:49;;;;;;;11.90;7.70;;;;;;;2.23;71.47;98200.81;5050781;28;20047;-74
2021/03/09 02:50:21;;;;;;;11.68;7.97;;;;;;;1.94;72.71;98188.28;5050476;28;20029;-75
2021/03/09 02:53:00;;;;;;;10.50;6.70;;;;;;;1.86;73.69;98199.41;5049812;28;20112;-74
2021/03/09 02:55:27;;;;;;;12.77;8.13;;;;;;;1.89;74.08;98188.97;5049383;28;20474;-74
2021/03/09 02:57:55;;;;;;;10.10;6.28;;;;;;;1.77;74.67;98196.25;5050553;28;20040;-74
2021/03/09 03:00:22;;;;;;;10.85;7.35;;;;;;;1.64;75.25;98199.16;5050465;28;20033;-74
2021/03/09 03:02:51;;;;;;;11.35;7.00;;;;;;;1.67;75.37;98205.94;5049104;28;20052;-73
2021/03/09 03:05:18;;;;;;;11.07;7.05;;;;;;;1.64;75.49;98193.75;5050944;28;20063;-74
2021/03/09 03:07:45;;;;;;;11.63;7.45;;;;;;;1.76;75.29;98191.88;5050349;28;20063;-74
2021/03/09 03:10:13;;;;;;;9.50;6.53;;;;;;;1.62;75.53;98190.47;5048664;28;20055;-74
2021/03/09 03:12:40;;;;;;;11.70;6.50;;;;;;;1.61;75.59;98197.75;5050001;28;20029;-75
2021/03/09 03:15:06;;;;;;;13.75;7.68;;;;;;;1.37;76.59;98196.06;5050260;28;20031;-74
2021/03/09 03:17:36;;;;;;;12.63;6.93;;;;;;;1.32;76.96;98192.38;5048857;28;20025;-74
2021/03/09 03:20:06;;;;;;;9.80;6.78;;;;;;;1.44;76.69;98193.28;5050358;28;20037;-74
2021/03/09 03:22:32;;;;;;;13.63;8.00;;;;;;;1.46;76.20;98193.84;5050812;28;20052;-74
2021/03/09 03:25:01;;;;;;;14.25;7.63;;;;;;;1.52;76.18;98184.84;5050654;28;20078;-74
2021/03/09 03:27:27;;;;;;;13.63;7.68;;;;;;;1.43;75.25;98191.63;5050350;28;20028;-75
2021/03/09 03:29:52;;;;;;;11.57;7.38;;;;;;;1.45;74.89;98176.03;5049863;28;20711;-75
2021/03/09 03:32:18;;;;;;;12.52;6.63;;;;;;;1.50;76.10;98182.34;5050322;28;20489;-74
2021/03/09 03:34:46;;;;;;;13.13;7.03;;;;;;;1.53;76.05;98184.63;5048599;28;20021;-74
2021/03/09 03:37:14;;;;;;;10.85;7.43;;;;;;;1.48;75.57;98186.34;5049869;28;20045;-74
2021/03/09 03:39:40;;;;;;;12.63;7.63;;;;;;;1.51;75.97;98189.41;5049712;28;20028;-73
2021/03/09 03:42:06;;;;;;;17.27;8.80;;;;;;;1.47;75.30;98180.13;5048603;28;20052;-73
2021/03/09 03:44:32;;;;;;;13.93;7.60;;;;;;;1.48;75.14;98180.94;5049138;28;20037;-74
2021/03/09 03:46:58;;;;;;;13.93;9.02;;;;;;;1.50;75.11;98178.88;5054205;28;20052;-74
2021/03/09 03:49:23;;;;;;;11.35;8.75;;;;;;;1.39;75.42;98182.34;5032851;28;20446;-74
2021/03/09 03:51:58;;;;;;;11.20;8.00;;;;;;;1.36;75.60;98182.81;5032674;28;20031;-74
2021/03/09 03:54:23;;;;;;;12.90;7.38;;;;;;;1.40;75.75;98186.69;5034023;28;20043;-74
2021/03/09 03:56:55;;;;;;;13.75;8.25;;;;;;;1.35;75.87;98181.16;5034237;28;20021;-73
2021/03/09 03:59:31;;;;;;;13.60;8.57;;;;;;;1.28;75.66;98180.47;5041490;28;20044;-73
2021/03/09 04:02:03;;;;;;;17.38;9.50;;;;;;;1.33;75.49;98188.66;5032714;28;20067;-73
2021/03/09 04:04:30;;;;;;;14.95;8.02;;;;;;;1.36;75.32;98185.50;5042272;28;20386;-74
2021/03/09 04:06:55;;;;;;;16.00;8.23;;;;;;;1.41;75.04;98186.44;5053622;28;20025;-74
2021/03/09 04:09:31;;;;;;;11.93;8.20;;;;;;;1.44;74.51;98171.72;5053465;28;20040;-76
2021/03/09 04:11:59;;;;;;;9.35;6.70;;;;;;;1.41;74.64;98185.66;5053712;28;20097;-74
2021/03/09 04:14:25;;;;;;;13.55;8.85;;;;;;;1.40;74.89;98187.50;5055220;28;20442;-74
2021/03/09 04:16:53;;;;;;;19.08;9.25;;;;;;;1.40;74.69;98184.81;5057911;28;20095;-74
2021/03/09 04:19:21;;;;;;;15.32;10.55;;;;;;;1.41;74.80;98196.44;5056034;28;20036;-74
2021/03/09 04:21:48;;;;;;;15.10;9.73;;;;;;;1.30;75.11;98189.13;5054459;28;20013;-74
2021/03/09 04:24:15;;;;;;;14.57;7.88;;;;;;;1.22;75.41;98201.06;5053454;28;20025;-73
2021/03/09 04:26:41;;;;;;;14.30;9.10;;;;;;;1.17;75.54;98190.13;5053271;28;20028;-73
2021/03/09 04:29:10;;;;;;;13.80;8.52;;;;;;;1.34;75.23;98201.91;5053635;28;20028;-74
2021/03/09 04:31:40;;;;;;;13.13;7.95;;;;;;;1.49;74.64;98193.38;5053262;28;20806;-74
2021/03/09 04:34:06;;;;;;;13.23;8.05;;;;;;;1.33;75.07;98189.47;5053259;28;20041;-74
2021/03/09 04:36:31;;;;;;;16.25;8.63;;;;;;;1.27;75.09;98193.09;5052923;28;20029;-74
2021/03/09 04:38:57;;;;;;;17.77;9.15;;;;;;;1.15;75.79;98178.78;5053157;28;20047;-74
2021/03/09 04:41:23;;;;;;;15.10;8.88;;;;;;;1.21;75.79;98195.88;5053039;28;20122;-74
2021/03/09 04:43:52;;;;;;;17.35;10.25;;;;;;;1.13;76.02;98193.53;5052769;28;20060;-74
2021/03/09 04:46:21;;;;;;;16.75;9.30;;;;;;;1.20;75.91;98188.84;5051673;28;20029;-74
2021/03/09 04:48:46;;;;;;;13.82;9.02;;;;;;;1.20;76.18;98192.38;5052726;28;20029;-74
2021/03/09 04:51:16;;;;;;;14.05;8.25;;;;;;;1.12;76.23;98183.81;5052806;28;20390;-72
2021/03/09 04:53:43;;;;;;;21.17;9.18;;;;;;;1.25;76.50;98186.31;5053190;28;20095;-74
2021/03/09 04:56:09;;;;;;;13.68;9.10;;;;;;;1.29;76.70;98187.47;5051751;28;20033;-74
2021/03/09 04:58:35;;;;;;;14.68;8.65;;;;;;;1.13;76.94;98186.25;5052855;28;20385;-74
2021/03/09 05:01:01;;;;;;;;;;;;;;;1.16;77.04;98190.38;5052957;28;20035;-74
2021/03/09 05:03:26;;;;;;;12.20;7.57;;;;;;;1.07;77.71;98187.16;5052526;28;19920;-74
2021/03/09 05:05:52;;;;;;;11.05;7.28;;;;;;;1.10;77.64;98185.91;5052520;28;20029;-74
2021/03/09 05:08:18;;;;;;;10.48;6.70;;;;;;;0.99;77.84;98182.13;5052417;28;20029;-73
2021/03/09 05:10:44;;;;;;;13.65;8.77;;;;;;;1.02;78.19;98185.19;5052569;28;20056;-74
2021/03/09 05:13:09;;;;;;;14.52;8.07;;;;;;;1.01;77.95;98186.22;5052459;28;20060;-74
2021/03/09 05:15:35;;;;;;;;;;;;;;;1.12;77.79;98175.72;5053270;28;20075;-74
2021/03/09 05:18:00;;;;;;;11.13;7.43;;;;;;;1.05;77.60;98171.25;5046610;28;20416;-74
2021/03/09 05:20:26;;;;;;;;;;;;;;;0.95;77.89;98175.53;5040176;28;20033;-74
2021/03/09 05:22:52;;;;;;;17.23;8.20;;;;;;;0.84;78.35;98166.38;5050336;28;19921;-74
2021/03/09 05:25:17;;;;;;;;;;;;;;;0.98;78.53;98188.53;5049624;28;20029;-74
2021/03/09 05:27:44;;;;;;;11.07;6.97;;;;;;;0.86;79.16;98179.59;5049038;28;19927;-75
2021/03/09 05:30:12;;;;;;;13.45;8.25;;;;;;;0.80;79.53;98191.28;5050243;28;20537;-74
2021/03/09 05:32:37;;;;;;;12.65;8.10;;;;;;;0.81;79.34;98185.69;5049110;28;20112;-74
2021/03/09 05:35:05;;;;;;;15.32;9.07;;;;;;;0.82;79.79;98176.53;5050070;28;20020;-73
2021/03/09 05:37:30;;;;;;;16.80;9.38;;;;;;;0.84;79.67;98185.22;5047329;28;20045;-74
2021/03/09 05:39:56;;;;;;;13.55;8.52;;;;;;;0.95;79.09;98181.75;5048749;28;20036;-75
2021/03/09 05:42:21;;;;;;;;;;;;;;;0.91;78.86;98188.63;5049264;28;20032;-74
2021/03/09 05:44:47;;;;;;;12.45;7.57;;;;;;;1.07;79.27;98188.00;5044523;28;19916;-75
2021/03/09 05:47:13;;;;;;;17.02;8.05;;;;;;;0.89;79.03;98177.28;5048925;28;20036;-76
2021/03/09 05:49:38;;;;;;;17.45;9.90;;;;;;;0.93;78.83;98186.56;5044621;28;20040;-75
2021/03/09 05:52:08;;;;;;;;;;;;;;;0.96;78.96;98186.09;5046516;28;20037;-72
2021/03/09 05:54:34;;;;;;;13.55;8.60;;;;;;;0.96;78.92;98183.41;5044495;28;20346;-72
2021/03/09 05:56:59;;;;;;;14.55;9.23;;;;;;;0.95;78.96;98189.81;5049534;28;20057;-73
2021/03/09 05:59:25;;;;;;;17.13;9.57;;;;;;;0.95;78.63;98191.69;5045431;28;20017;-74
2021/03/09 06:01:53;;;;;;;;;;;;;;;0.98;78.69;98197.44;5047433;28;20021;-73
2021/03/09 06:04:18;;;;;;;18.75;9.65;;;;;;;1.07;78.47;98190.69;5045754;28;19943;-75
2021/03/09 06:06:45;;;;;;;14.07;8.80;;;;;;;1.12;78.33;98191.88;5050983;28;20466;-73
2021/03/09 06:09:49;;;;;;;15.18;9.85;;;;;;;1.29;77.96;98184.78;5049936;28;20033;-72
2021/03/09 06:12:21;;;;;;;17.98;10.00;;;;;;;1.23;78.45;98185.69;5027399;28;20040;-73
2021/03/09 06:14:55;;;;;;;15.75;9.68;;;;;;;1.36;77.80;98188.19;5025839;28;20036;-73
2021/03/09 06:17:24;;;;;;;18.15;9.15;;;;;;;1.48;77.41;98187.16;5041464;28;20680;-74
2021/03/09 06:19:50;;;;;;;17.40;10.82;;;;;;;1.65;77.00;98181.94;5047050;28;20024;-74
2021/03/09 06:22:17;;;;;;;18.70;9.18;;;;;;;2.01;76.67;98176.31;5051095;28;20112;-73
2021/03/09 06:24:44;;;;;;;20.83;10.50;;;;;;;2.26;75.23;98183.31;5049038;28;20029;-73
2021/03/09 06:27:30;;;;;;;19.10;9.50;;;;;;;2.41;74.22;98176.38;5051252;28;20713;-74
2021/03/09 06:29:56;;;;;;;19.30;10.27;;;;;;;2.39;72.95;98177.66;5051122;28;20057;-73
2021/03/09 06:32:23;;;;;;;18.65;9.57;;;;;;;2.17;73.36;98181.00;5050460;28;20028;-78
2021/03/09 06:34:54;;;;;;;19.00;9.93;;;;;;;2.15;73.71;98180.41;5054923;28;20036;-80
2021/03/09 06:37:26;;;;;;;13.98;9.32;;;;;;;2.29;73.69;98188.28;5053372;28;20060;-74
2021/03/09 06:40:09;;;;;;;15.50;9.18;;;;;;;2.36;73.57;98184.38;5082125;28;20420;-74
2021/03/09 06:42:39;;;;;;;19.27;11.02;;;;;;;2.41;72.69;98178.28;5050765;28;20033;-74
2021/03/09 06:45:10;;;;;;;19.15;11.05;;;;;;;2.37;72.06;98187.88;5050691;28;20029;-74
2021/03/09 06:47:48;;;;;;;19.80;9.88;;;;;;;2.37;71.72;98198.69;5050639;28;20052;-74
2021/03/09 06:50:17;;;;;;;22.15;10.75;;;;;;;2.51;71.15;98198.19;5050508;28;20025;-74
2021/03/09 06:52:56;;;;;;;17.00;10.43;;;;;;;2.68;70.82;98207.19;5050780;28;20025;-74
2021/03/09 06:55:28;;;;;;;16.92;10.93;;;;;;;2.88;69.51;98201.38;5050622;28;20036;-74
2021/03/09 06:58:12;;;;;;;22.25;11.55;;;;;;;2.91;68.88;98206.31;5050343;28;20025;-74
2021/03/09 07:00:41;;;;;;;23.45;11.43;;;;;;;2.99;68.97;98211.31;5050366;28;20512;-74
2021/03/09 07:03:32;;;;;;;15.25;9.48;;;;;;;3.10;67.96;98207.75;5050461;28;20048;-74
2021/03/09 07:06:02;;;;;;;16.45;10.45;;;;;;;2.89;67.77;98205.72;5049804;28;20520;-74
2021/03/09 07:08:28;;;;;;;18.40;9.77;;;;;;;2.79;68.41;98210.91;5039983;28;20037;-74
2021/03/09 07:10:55;;;;;;;21.05;11.48;;;;;;;2.78;67.98;98206.59;5029225;28;20538;-74
2021/03/09 07:13:22;;;;;;;13.90;9.27;;;;;;;2.86;67.64;98208.91;5027261;28;20034;-74
2021/03/09 07:15:48;;;;;;;17.48;9.50;;;;;;;3.04;66.93;98208.72;5026942;28;20056;-74
2021/03/09 07:18:25;;;;;;;23.58;10.80;;;;;;;3.09;67.44;98208.81;5028408;28;20469;-75
2021/03/09 07:20:53;;;;;;;25.10;11.40;;;;;;;3.18;67.47;98209.25;5043465;28;20033;-74
2021/03/09 07:23:20;;;;;;;21.00;10.75;;;;;;;3.21;66.64;98203.38;5053500;28;20020;-74
2021/03/09 07:25:52;;;;;;;22.38;10.55;;;;;;;3.23;67.17;98209.34;5057459;28;20029;-74
2021/03/09 07:28:19;;;;;;;28.08;13.48;;;;;;;3.42;66.48;98210.78;5033270;28;20017;-74
2021/03/09 07:30:49;;;;;;;21.27;12.23;;;;;;;3.51;66.06;98211.22;5034682;28;20505;-74
2021/03/09 07:33:15;;;;;;;35.10;16.60;;;;;;;3.38;66.13;98203.41;5033634;28;20038;-75
2021/03/09 07:35:42;;;;;;;23.23;12.98;;;;;;;3.58;65.82;98204.56;5035122;28;20466;-77
2021/03/09 07:38:09;;;;;;;25.98;14.15;;;;;;;3.67;64.94;98205.81;5035018;28;20053;-74
2021/03/09 07:40:36;;;;;;;23.95;12.73;;;;;;;3.73;64.89;98198.59;5056779;28;20051;-74
2021/03/09 07:43:02;;;;;;;17.52;9.85;;;;;;;3.78;64.02;98204.94;5057324;28;20381;-74
2021/03/09 07:45:33;;;;;;;16.55;10.13;;;;;;;4.13;62.91;98199.25;5055794;28;20484;-73
2021/03/09 07:48:06;;;;;;;16.98;10.82;;;;;;;4.04;62.92;98192.59;5053742;28;20036;-74
2021/03/09 07:50:34;;;;;;;16.02;9.80;;;;;;;4.48;62.74;98203.53;5052018;28;20025;-73
2021/03/09 07:53:03;;;;;;;15.55;10.43;;;;;;;4.44;60.98;98205.09;5042901;28;20128;-74
2021/03/09 07:55:30;;;;;;;17.70;10.43;;;;;;;4.26;61.24;98198.09;5053862;28;20025;-74
2021/03/09 07:58:13;;;;;;;21.73;11.55;;;;;;;4.33;61.04;98204.94;5053623;28;20377;-74
2021/03/09 08:00:57;;;;;;;20.70;10.65;;;;;;;4.74;59.46;98200.91;5053532;28;20041;-74
2021/03/09 08:03:34;;;;;;;22.10;12.10;;;;;;;5.46;57.76;98188.94;5053667;28;20041;-74
2021/03/09 08:06:06;;;;;;;25.23;11.68;;;;;;;5.51;57.99;98191.72;5052588;28;20476;-73
2021/03/09 08:08:52;;;;;;;19.92;10.05;;;;;;;6.11;56.57;98192.25;5053431;28;20064;-74
2021/03/09 08:11:22;;;;;;;14.98;9.57;;;;;;;6.97;52.87;98195.44;5053055;28;20029;-74
2021/03/09 08:14:08;;;;;;;19.92;10.43;;;;;;;7.45;50.81;98196.97;5040128;28;20021;-74
2021/03/09 08:16:34;;;;;;;20.52;10.48;;;;;;;8.20;50.08;98190.75;5032881;28;20041;-75
2021/03/09 08:19:11;;;;;;;18.35;12.05;;;;;;;8.01;49.12;98200.56;5032192;28;20021;-74
2021/03/09 08:21:48;;;;;;;15.13;10.43;;;;;;;8.40;47.48;98198.91;5039274;28;20021;-74
2021/03/09 08:24:14;;;;;;;16.48;9.75;;;;;;;8.56;46.65;98186.88;5041869;28;20037;-74
2021/03/09 08:26:39;;;;;;;16.75;10.68;;;;;;;9.13;45.77;98193.78;5053535;28;20117;-74
2021/03/09 08:29:29;;;;;;;14.32;9.68;;;;;;;10.08;42.67;98197.00;5052195;28;20139;-74
2021/03/09 08:32:22;;;;;;;19.30;9.90;;;;;;;9.79;43.18;98180.53;5053388;28;20114;-74
2021/03/09 08:34:48;;;;;;;16.17;9.35;;;;;;;9.96;41.98;98178.19;5053440;28;20116;-74
2021/03/09 08:37:31;;;;;;;14.70;8.25;;;;;;;9.13;43.59;98167.31;5052701;28;20057;-74
2021/03/09 08:40:06;;;;;;;13.73;8.45;;;;;;;10.09;40.63;98168.53;5054224;28;20052;-74
2021/03/09 08:43:00;;;;;;;16.67;7.72;;;;;;;9.56;41.30;98168.41;5054182;28;20393;-75
2021/03/09 08:45:38;;;;;;;14.48;8.82;;;;;;;9.63;41.01;98168.09;5059244;28;20060;-75
2021/03/09 08:48:05;;;;;;;13.63;9.00;;;;;;;10.02;40.19;98160.66;5056455;28;20045;-74
2021/03/09 08:50:40;;;;;;;12.27;7.90;;;;;;;10.62;39.48;98155.72;5053354;28;20067;-74
2021/03/09 08:53:06;;;;;;;12.98;8.23;;;;;;;10.26;38.74;98163.50;5053651;28;20132;-74
2021/03/09 08:55:31;;;;;;;12.75;7.78;;;;;;;10.07;38.93;98154.34;5052559;28;20116;-74
2021/03/09 08:58:05;;;;;;;14.15;8.85;;;;;;;9.91;39.33;98166.50;5052834;28;20027;-74
2021/03/09 09:00:30;;;;;;;11.30;7.78;;;;;;;10.30;38.98;98156.38;5052909;28;20083;-74
2021/03/09 09:02:59;;;;;;;9.57;6.90;;;;;;;11.34;36.75;98154.53;5052347;28;20029;-74
2021/03/09 09:05:29;;;;;;;10.88;6.43;;;;;;;11.17;36.63;98151.50;5051498;28;20029;-74
2021/03/09 09:07:54;;;;;;;9.10;7.38;;;;;;;11.94;36.27;98146.53;5053094;28;20021;-74
2021/03/09 09:10:22;;;;;;;11.52;7.55;;;;;;;12.31;35.18;98151.94;5053041;28;20075;-74
2021/03/09 09:12:55;;;;;;;12.10;7.63;;;;;;;12.04;34.80;98149.13;5053564;28;20107;-75
2021/03/09 09:15:29;;;;;;;11.80;7.18;;;;;;;12.40;34.00;98147.41;5053956;28;20029;-75
2021/03/09 09:18:06;;;;;;;19.30;7.93;;;;;;;12.49;33.46;98147.50;5054684;28;20057;-74
2021/03/09 09:20:44;;;;;;;12.07;8.43;;;;;;;11.50;35.24;98136.78;5053608;28;20544;-74
2021/03/09 09:23:10;;;;;;;12.63;7.22;;;;;;;12.90;32.76;98134.63;5055023;28;20067;-74
2021/03/09 09:25:44;;;;;;;14.13;8.25;;;;;;;12.39;34.20;98139.47;5045871;28;20032;-75
2021/03/09 09:28:21;;;;;;;11.27;7.38;;;;;;;11.24;35.30;98130.06;5031981;28;20037;-74
2021/03/09 09:30:48;;;;;;;11.55;6.20;;;;;;;12.52;33.54;98128.50;5032223;28;20033;-74
2021/03/09 09:33:14;;;;;;;12.60;8.00;;;;;;;11.10;35.38;98126.41;5031795;28;20033;-74
2021/03/09 09:35:42;;;;;;;11.25;7.80;;;;;;;12.60;33.49;98122.31;5031876;28;20385;-74
2021/03/09 09:38:10;;;;;;;13.40;7.82;;;;;;;11.94;34.79;98119.13;5031729;28;20045;-74
2021/03/09 09:40:40;;;;;;;12.98;7.93;;;;;;;11.77;34.36;98120.53;5031621;28;20025;-73
2021/03/09 09:43:17;;;;;;;11.18;7.82;;;;;;;11.46;34.21;98113.84;5031166;28;20120;-74
2021/03/09 09:45:51;;;;;;;10.90;7.70;;;;;;;12.88;33.40;98110.22;5032096;28;20018;-74
2021/03/09 09:48:22;;;;;;;22.17;8.10;;;;;;;12.39;33.79;98101.88;5031849;28;20445;-73
2021/03/09 09:50:50;;;;;;;13.98;7.05;;;;;;;12.06;34.09;98111.28;5031875;28;20021;-73
2021/03/09 09:53:49;;;;;;;15.00;8.45;;;;;;;12.37;33.22;98106.84;5032030;28;20057;-75
2021/03/09 09:56:17;;;;;;;9.48;6.18;;;;;;;13.31;30.66;98116.16;5019602;28;20124;-74
2021/03/09 09:58:43;;;;;;;8.98;6.10;;;;;;;12.73;31.47;98107.78;5031876;28;20108;-75
2021/03/09 10:01:09;;;;;;;9.07;5.90;;;;;;;12.88;32.21;98101.97;5031509;28;20120;-75
2021/03/09 10:03:59;;;;;;;9.15;7.25;;;;;;;12.74;32.48;98101.19;5031203;28;20033;-75
2021/03/09 10:06:29;;;;;;;12.65;6.88;;;;;;;12.56;32.06;98091.09;5031441;28;20033;-74
2021/03/09 10:08:55;;;;;;;10.23;7.18;;;;;;;12.28;32.84;98100.41;5031307;28;20072;-75
2021/03/09 10:11:22;;;;;;;15.32;8.02;;;;;;;11.70;33.28;98091.84;5030138;28;20068;-74
2021/03/09 10:13:47;;;;;;;11.10;7.72;;;;;;;12.02;33.91;98080.06;5031452;28;20064;-74
2021/03/09 10:16:13;;;;;;;10.52;6.68;;;;;;;11.24;34.41;98089.00;5031168;28;20056;-74
2021/03/09 10:18:39;;;;;;;11.40;7.80;;;;;;;11.93;33.47;98090.13;5031277;28;20026;-74
2021/03/09 10:21:15;;;;;;;10.88;7.95;;;;;;;11.90;33.50;98079.75;5031215;28;20033;-74
2021/03/09 10:23:57;;;;;;;10.90;6.80;;;;;;;11.68;33.87;98072.94;5031553;28;20033;-74
2021/03/09 10:26:28;;;;;;;12.40;7.55;;;;;;;11.94;33.44;98072.53;5030899;28;20072;-74
2021/03/09 10:29:16;;;;;;;12.65;7.65;;;;;;;12.46;33.11;98080.34;5030742;28;20021;-74
2021/03/09 10:31:59;;;;;;;11.75;6.97;;;;;;;12.71;32.50;98073.53;5030856;28;20434;-74
2021/03/09 10:34:44;;;;;;;7.82;6.95;;;;;;;12.30;32.66;98071.59;5031057;28;20030;-74
2021/03/09 10:37:17;;;;;;;9.52;6.15;;;;;;;12.49;32.23;98067.94;5030479;28;20399;-74
2021/03/09 10:39:56;;;;;;;8.93;6.32;;;;;;;13.08;31.96;98066.97;5030735;28;20038;-74
2021/03/09 10:42:36;;;;;;;9.30;5.75;;;;;;;12.94;30.96;98057.94;5030869;28;20021;-74
2021/03/09 10:45:25;;;;;;;9.52;6.85;;;;;;;13.36;31.32;98054.81;5029386;28;20819;-74
2021/03/09 10:48:01;;;;;;;8.70;5.75;;;;;;;13.18;30.97;98055.78;5030744;28;20021;-74
2021/03/09 10:50:30;;;;;;;7.78;6.20;;;;;;;13.89;29.64;98044.69;5030864;28;20084;-74
2021/03/09 10:52:56;;;;;;;8.05;5.97;;;;;;;13.30;31.26;98042.31;5031120;28;20017;-74
2021/03/09 10:55:22;;;;;;;9.77;6.40;;;;;;;13.73;30.44;98042.63;5029889;28;20099;-74
2021/03/09 10:57:48;;;;;;;11.23;6.90;;;;;;;14.01;29.89;98035.03;5029389;28;20117;-75
2021/03/09 11:00:16;;;;;;;8.55;5.03;;;;;;;15.13;27.57;98039.78;5030779;28;20112;-74
2021/03/09 11:02:42;;;;;;;7.10;5.35;;;;;;;13.87;27.59;98029.63;5030491;28;20025;-74
2021/03/09 11:05:08;;;;;;;7.63;4.93;;;;;;;14.33;27.10;98027.28;5030467;28;20084;-74
2021/03/09 11:07:34;;;;;;;5.75;4.57;;;;;;;13.62;27.23;98031.09;5029073;28;20254;-74
2021/03/09 11:09:59;;;;;;;7.47;5.13;;;;;;;12.99;29.04;98030.38;5029217;28;20532;-74
2021/03/09 11:12:25;;;;;;;8.52;5.20;;;;;;;13.06;28.91;98026.06;5030422;28;20030;-74
2021/03/09 11:14:50;;;;;;;5.75;4.18;;;;;;;12.81;28.70;98024.69;5030729;28;20054;-74
2021/03/09 11:17:16;;;;;;;7.47;3.88;;;;;;;13.19;28.69;98014.25;5030075;28;20108;-76
2021/03/09 11:19:42;;;;;;;7.13;4.38;;;;;;;13.23;28.48;98017.19;5029309;28;20026;-73
2021/03/09 11:22:07;;;;;;;6.10;4.13;;;;;;;12.48;28.99;98001.28;5030490;28;20034;-74
2021/03/09 11:24:33;;;;;;;4.40;3.67;;;;;;;11.90;29.93;98003.81;5031676;28;20014;-75
2021/03/09 11:27:00;;;;;;;7.45;4.53;;;;;;;11.04;31.39;98004.41;5032404;28;20072;-73
2021/03/09 11:29:30;;;;;;;6.38;4.40;;;;;;;9.89;33.63;97991.97;5035445;28;20025;-74
2021/03/09 11:31:56;;;;;;;4.95;4.03;;;;;;;8.57;34.73;98007.78;5033308;28;20041;-75
2021/03/09 11:34:22;;;;;;;7.22;4.13;;;;;;;8.25;36.53;97989.09;5030828;28;20390;-73
2021/03/09 11:36:47;;;;;;;5.55;4.05;;;;;;;8.33;36.45;97993.19;5030104;28;20383;-73
2021/03/09 11:39:13;;;;;;;5.38;3.47;;;;;;;8.23;36.67;97985.84;5030220;28;20040;-73
2021/03/09 11:41:39;;;;;;;7.43;4.82;;;;;;;8.07;36.87;97978.81;5030191;28;20033;-73
2021/03/09 11:44:05;;;;;;;6.45;4.43;;;;;;;8.05;37.52;97978.25;5030815;28;20036;-73
2021/03/09 11:46:30;;;;;;;7.20;4.07;;;;;;;7.93;37.74;97983.22;5031938;28;20536;-72